createdAt,value
2016-11-29T00:04:36.815Z,1028.04
2016-11-29T00:09:33.069Z,1027.88
2016-11-29T00:14:29.394Z,1027.93
2016-11-29T00:19:25.510Z,1027.91
2016-11-29T00:24:21.910Z,1027.90
2016-11-29T00:29:18.063Z,1027.81
2016-11-29T00:34:14.319Z,1027.98
2016-11-29T00:39:10.516Z,1027.99
2016-11-29T00:44:08.682Z,1028.10
2016-11-29T00:49:04.388Z,1028.05
2016-11-29T00:54:00.695Z,1028.02
2016-11-29T00:58:56.977Z,1028.03
2016-11-29T01:03:53.162Z,1028.00
2016-11-29T01:08:49.159Z,1028.01
2016-11-29T01:13:45.360Z,1028.10
2016-11-29T01:18:42.417Z,1028.12
2016-11-29T01:23:39.390Z,1028.09
2016-11-29T01:28:35.609Z,1028.09
2016-11-29T01:33:31.813Z,1028.07
2016-11-29T01:38:28.275Z,1028.06
2016-11-29T01:43:25.063Z,1028.08
2016-11-29T01:48:21.244Z,1028.07
2016-11-29T01:53:17.482Z,1027.99
2016-11-29T01:58:13.438Z,1028.05
2016-11-29T02:03:10.631Z,1027.89
2016-11-29T02:08:06.682Z,1027.82
2016-11-29T02:13:03.075Z,1027.89
2016-11-29T02:17:59.299Z,1027.92
2016-11-29T02:22:55.842Z,1027.84
2016-11-29T02:27:52.023Z,1027.79
2016-11-29T02:32:49.127Z,1027.89
2016-11-29T02:37:45.308Z,1027.81
2016-11-29T02:42:41.842Z,1027.80
2016-11-29T02:47:38.203Z,1027.75
2016-11-29T02:52:34.344Z,1027.71
2016-11-29T02:57:30.567Z,1027.71
2016-11-29T03:02:26.945Z,1027.76
2016-11-29T03:07:23.854Z,1027.70
2016-11-29T03:12:20.092Z,1027.69
2016-11-29T03:17:16.084Z,1027.86
2016-11-29T03:22:12.577Z,1027.74
2016-11-29T03:27:08.649Z,1027.89
2016-11-29T03:32:04.768Z,1027.80
2016-11-29T03:37:00.883Z,1027.78
2016-11-29T03:41:56.869Z,1027.73
2016-11-29T03:46:53.119Z,1027.85
2016-11-29T03:51:49.271Z,1027.73
2016-11-29T03:56:45.537Z,1027.55
2016-11-29T04:01:42.532Z,1027.69
2016-11-29T04:06:39.070Z,1027.63
2016-11-29T04:11:35.462Z,1027.67
2016-11-29T04:16:31.667Z,1027.68
2016-11-29T04:21:28.375Z,1027.58
2016-11-29T04:26:24.391Z,1027.60
2016-11-29T04:31:20.654Z,1027.63
2016-11-29T04:36:16.877Z,1027.75
2016-11-29T04:41:13.104Z,1027.77
2016-11-29T04:46:09.414Z,1027.74
2016-11-29T04:51:05.618Z,1027.74
2016-11-29T04:56:01.757Z,1027.77
2016-11-29T05:00:57.843Z,1027.73
2016-11-29T05:05:53.981Z,1027.81
2016-11-29T05:10:50.208Z,1027.73
2016-11-29T05:15:46.462Z,1027.77
2016-11-29T05:20:43.467Z,1027.75
2016-11-29T05:25:40.540Z,1027.74
2016-11-29T05:30:36.823Z,1027.76
2016-11-29T05:35:33.045Z,1027.76
2016-11-29T05:40:29.868Z,1027.82
2016-11-29T05:45:26.104Z,1027.85
2016-11-29T05:50:22.529Z,1027.86
2016-11-29T05:55:19.101Z,1027.82
2016-11-29T06:00:15.385Z,1027.92
2016-11-29T06:05:11.651Z,1027.86
2016-11-29T06:10:07.929Z,1028.04
2016-11-29T06:15:04.177Z,1027.98
2016-11-29T06:20:00.634Z,1028.08
2016-11-29T06:24:57.646Z,1028.19
2016-11-29T06:29:53.793Z,1028.19
2016-11-29T06:34:49.964Z,1028.16
2016-11-29T06:39:47.718Z,1028.23
2016-11-29T06:44:44.061Z,1028.25
2016-11-29T06:49:40.260Z,1028.36
2016-11-29T06:54:37.119Z,1028.46
2016-11-29T06:59:33.585Z,1028.43
2016-11-29T07:04:29.773Z,1028.44
2016-11-29T07:09:25.921Z,1028.47
2016-11-29T07:14:22.126Z,1028.65
2016-11-29T07:19:18.361Z,1028.67
2016-11-29T07:24:14.556Z,1028.63
2016-11-29T07:29:10.704Z,1028.67
2016-11-29T07:34:07.305Z,1028.69
2016-11-29T07:39:03.720Z,1028.78
2016-11-29T07:43:59.536Z,1028.81
2016-11-29T07:48:56.007Z,1028.80
2016-11-29T07:53:52.332Z,1028.87
2016-11-29T07:58:48.985Z,1028.92
2016-11-29T08:03:45.360Z,1028.92
2016-11-29T08:08:41.670Z,1029.08
2016-11-29T08:13:37.985Z,1029.08
2016-11-29T08:18:34.344Z,1029.07
2016-11-29T08:23:30.506Z,1029.15
2016-11-29T08:28:26.803Z,1029.07
2016-11-29T08:33:22.995Z,1029.23
2016-11-29T08:38:19.373Z,1029.20
2016-11-29T08:43:16.285Z,1029.18
2016-11-29T08:48:12.592Z,1029.25
2016-11-29T08:53:09.980Z,1029.21
2016-11-29T08:58:06.691Z,1029.14
2016-11-29T09:03:02.898Z,1029.16
2016-11-29T09:07:59.032Z,1029.21
2016-11-29T09:12:55.250Z,1029.31
2016-11-29T09:17:52.018Z,1029.43
2016-11-29T09:22:48.607Z,1029.45
2016-11-29T09:27:45.379Z,1029.46
2016-11-29T09:32:41.974Z,1029.37
2016-11-29T09:37:38.409Z,1029.49
2016-11-29T09:42:35.221Z,1029.56
2016-11-29T09:47:31.606Z,1029.51
2016-11-29T09:52:28.155Z,1029.56
2016-11-29T09:57:25.010Z,1029.44
2016-11-29T10:02:22.041Z,1029.36
2016-11-29T10:07:18.764Z,1029.38
2016-11-29T10:12:14.825Z,1029.28
2016-11-29T10:17:10.905Z,1029.24
2016-11-29T10:22:06.967Z,1029.22
2016-11-29T10:27:03.317Z,1029.11
2016-11-29T10:32:00.763Z,1029.11
2016-11-29T10:36:57.004Z,1029.08
2016-11-29T10:41:53.207Z,1029.07
2016-11-29T10:46:49.757Z,1029.04
2016-11-29T10:51:46.515Z,1029.05
2016-11-29T10:56:43.053Z,1028.99
2016-11-29T11:01:39.833Z,1029.05
2016-11-29T11:06:36.580Z,1028.95
2016-11-29T11:11:33.331Z,1028.84
2016-11-29T11:16:31.379Z,1028.87
2016-11-29T11:31:31.057Z,1028.78
2016-11-29T11:36:27.506Z,1028.75
2016-11-29T11:41:23.711Z,1028.67
2016-11-29T11:46:19.724Z,1028.67
2016-11-29T11:51:15.743Z,1028.70
2016-11-29T11:56:12.010Z,1028.66
2016-11-29T12:01:08.524Z,1028.67
2016-11-29T12:06:04.698Z,1028.66
2016-11-29T12:11:00.857Z,1028.48
2016-11-29T12:15:57.018Z,1028.41
2016-11-29T12:20:53.496Z,1028.36
2016-11-29T12:25:49.859Z,1028.35
2016-11-29T12:30:46.046Z,1028.28
2016-11-29T12:35:43.167Z,1028.30
2016-11-29T12:40:41.372Z,1028.24
2016-11-29T12:45:37.312Z,1028.26
2016-11-29T12:50:33.496Z,1028.19
2016-11-29T12:55:30.420Z,1028.24
2016-11-29T13:00:26.942Z,1028.10
2016-11-29T13:05:23.207Z,1028.07
2016-11-29T13:10:22.031Z,1028.04
2016-11-29T13:15:17.613Z,1028.03
2016-11-29T13:20:13.894Z,1027.97
2016-11-29T13:25:10.286Z,1027.93
2016-11-29T13:30:06.343Z,1027.85
2016-11-29T13:35:03.713Z,1027.89
2016-11-29T13:40:00.903Z,1027.91
2016-11-29T13:44:57.180Z,1027.95
2016-11-29T13:49:53.503Z,1028.03
2016-11-29T13:54:49.922Z,1028.00
2016-11-29T13:59:46.281Z,1027.98
2016-11-29T14:04:42.643Z,1027.97
2016-11-29T14:09:38.975Z,1027.89
2016-11-29T14:14:35.366Z,1027.85
2016-11-29T14:19:31.572Z,1027.75
2016-11-29T14:24:28.661Z,1027.81
2016-11-29T14:29:25.057Z,1027.80
2016-11-29T14:34:21.119Z,1027.68
2016-11-29T14:39:19.305Z,1027.78
2016-11-29T14:44:15.364Z,1027.69
2016-11-29T14:49:12.550Z,1027.70
2016-11-29T14:54:08.520Z,1027.76
2016-11-29T14:59:05.600Z,1027.75
2016-11-29T15:04:01.373Z,1027.67
2016-11-29T15:08:57.867Z,1027.65
2016-11-29T15:13:53.891Z,1027.51
2016-11-29T15:18:50.093Z,1027.59
2016-11-29T15:23:46.410Z,1027.54
2016-11-29T15:28:42.769Z,1027.52
2016-11-29T15:33:38.863Z,1027.65
2016-11-29T15:38:35.038Z,1027.66
2016-11-29T15:43:31.273Z,1027.65
2016-11-29T15:48:28.600Z,1027.70
2016-11-29T15:53:24.757Z,1027.82
2016-11-29T15:58:21.006Z,1027.69
2016-11-29T16:03:18.038Z,1027.53
2016-11-29T16:08:14.311Z,1027.64
2016-11-29T16:13:10.378Z,1027.69
2016-11-29T16:18:06.660Z,1027.62
2016-11-29T16:23:04.656Z,1027.53
2016-11-29T16:28:00.679Z,1027.55
2016-11-29T16:32:59.514Z,1027.64
2016-11-29T16:37:55.919Z,1027.76
2016-11-29T16:42:52.334Z,1027.71
2016-11-29T16:47:48.805Z,1027.62
2016-11-29T16:52:46.017Z,1027.62
2016-11-29T16:57:42.051Z,1027.53
2016-11-29T17:02:38.416Z,1027.69
2016-11-29T17:07:34.681Z,1027.72
2016-11-29T17:12:30.966Z,1027.64
2016-11-29T17:17:27.870Z,1027.64
2016-11-29T17:22:23.961Z,1027.71
2016-11-29T17:27:20.118Z,1027.66
2016-11-29T17:32:16.433Z,1027.70
2016-11-29T17:37:12.630Z,1027.70
2016-11-29T17:42:08.966Z,1027.57
2016-11-29T17:47:05.256Z,1027.54
2016-11-29T17:52:02.851Z,1027.61
2016-11-29T17:56:58.708Z,1027.61
2016-11-29T18:01:55.017Z,1027.56
2016-11-29T18:06:51.329Z,1027.59
2016-11-29T18:11:48.321Z,1027.43
2016-11-29T18:16:44.469Z,1027.50
2016-11-29T18:21:40.942Z,1027.44
2016-11-29T18:26:37.152Z,1027.35
2016-11-29T18:31:33.973Z,1027.37
2016-11-29T18:36:31.606Z,1027.37
2016-11-29T18:41:28.157Z,1027.56
2016-11-29T18:46:24.399Z,1027.46
2016-11-29T18:51:20.597Z,1027.44
2016-11-29T18:56:16.734Z,1027.43
2016-11-29T19:01:12.953Z,1027.33
2016-11-29T19:06:09.230Z,1027.29
2016-11-29T19:11:05.549Z,1027.37
2016-11-29T19:16:01.926Z,1027.26
2016-11-29T19:20:58.209Z,1027.23
2016-11-29T19:25:55.067Z,1027.18
2016-11-29T19:30:51.227Z,1027.05
2016-11-29T19:35:47.427Z,1026.96
2016-11-29T19:40:44.457Z,1026.95
2016-11-29T19:45:40.838Z,1026.87
2016-11-29T19:50:37.155Z,1026.88
2016-11-29T19:55:33.558Z,1026.84
2016-11-29T20:00:29.775Z,1026.75
2016-11-29T20:05:26.039Z,1026.70
2016-11-29T20:10:23.022Z,1026.82
2016-11-29T20:15:19.469Z,1026.65
2016-11-29T20:20:16.064Z,1026.57
2016-11-29T20:25:12.920Z,1026.75
2016-11-29T20:30:09.990Z,1026.69
2016-11-29T20:35:08.870Z,1026.78
2016-11-29T20:40:04.450Z,1026.79
2016-11-29T20:45:00.771Z,1026.84
2016-11-29T20:49:57.985Z,1026.83
2016-11-29T20:54:54.925Z,1027.01
2016-11-29T20:59:51.083Z,1027.13
2016-11-29T21:04:47.163Z,1027.17
2016-11-29T21:09:43.450Z,1027.24
2016-11-29T21:14:40.633Z,1027.27
2016-11-29T21:19:36.588Z,1027.18
2016-11-29T21:24:32.860Z,1027.25
2016-11-29T21:29:29.046Z,1027.31
2016-11-29T21:34:25.568Z,1027.20
2016-11-29T21:39:21.948Z,1027.29
2016-11-29T21:44:18.289Z,1027.32
2016-11-29T21:49:15.253Z,1027.27
2016-11-29T21:54:11.706Z,1027.22
2016-11-29T21:59:08.618Z,1027.07
2016-11-29T22:04:05.009Z,1027.17
2016-11-29T22:09:01.195Z,1027.36
2016-11-29T22:13:57.304Z,1027.17
2016-11-29T22:18:53.794Z,1027.02
2016-11-29T22:23:50.084Z,1026.93
2016-11-29T22:28:47.041Z,1026.86
2016-11-29T22:33:43.116Z,1026.73
2016-11-29T22:38:39.397Z,1027.00
2016-11-29T22:43:36.826Z,1026.98
2016-11-29T22:48:32.778Z,1027.27
2016-11-29T22:53:29.239Z,1027.20
2016-11-29T22:58:25.357Z,1026.88
2016-11-29T23:03:21.668Z,1027.11
2016-11-29T23:08:17.873Z,1026.95
2016-11-29T23:13:14.191Z,1027.01
2016-11-29T23:18:10.241Z,1026.79
2016-11-29T23:23:06.435Z,1026.87
2016-11-29T23:28:05.149Z,1026.85
2016-11-29T23:33:00.976Z,1026.75
2016-11-29T23:37:58.191Z,1026.66
2016-11-29T23:42:54.430Z,1026.68
2016-11-29T23:47:51.426Z,1026.43
2016-11-29T23:52:48.424Z,1026.45
2016-11-29T23:57:44.602Z,1026.25
